createdAt,value
2023-03-29T00:02:01.801Z,98999.56
2023-03-29T00:04:28.623Z,99009.53
2023-03-29T00:06:55.446Z,98989.59
2023-03-29T00:09:21.919Z,98987.16
2023-03-29T00:11:48.374Z,98990.41
2023-03-29T00:14:15.178Z,98987.97
2023-03-29T00:16:42.227Z,98985.28
2023-03-29T00:19:09.336Z,98986.34
2023-03-29T00:21:36.065Z,98976.09
2023-03-29T00:24:05.618Z,98986.06
2023-03-29T00:26:50.171Z,98981.19
2023-03-29T00:29:17.128Z,98978.75
2023-03-29T00:31:59.399Z,98972.53
2023-03-29T00:37:15.564Z,98961.47
2023-03-29T00:39:45.375Z,98976.81
2023-03-29T00:42:14.377Z,98962.53
2023-03-29T00:45:02.028Z,98965.50
2023-03-29T00:47:57.120Z,98958.47
2023-03-29T00:50:47.985Z,98963.06
2023-03-29T00:53:57.307Z,98965.97
2023-03-29T00:56:30.154Z,98957.09
2023-03-29T00:59:19.599Z,98943.63
2023-03-29T01:01:55.222Z,98946.59
2023-03-29T01:04:56.472Z,98936.88
2023-03-29T01:07:46.621Z,98933.63
2023-03-29T01:10:40.305Z,98922.28
2023-03-29T01:15:56.511Z,98927.59
2023-03-29T01:18:25.948Z,98926.00
2023-03-29T01:21:20.998Z,98915.47
2023-03-29T01:24:06.946Z,98910.31
2023-03-29T01:26:59.130Z,98913.53
2023-03-29T01:29:37.359Z,98913.28
2023-03-29T01:32:12.917Z,98897.94
2023-03-29T01:35:05.574Z,98899.00
2023-03-29T01:37:38.877Z,98889.56
2023-03-29T01:40:11.280Z,98881.22
2023-03-29T01:43:11.140Z,98880.09
2023-03-29T01:46:02.712Z,98878.22
2023-03-29T01:49:01.786Z,98867.22
2023-03-29T01:51:45.394Z,98864.25
2023-03-29T01:54:18.555Z,98860.22
2023-03-29T01:56:51.980Z,98861.31
2023-03-29T01:59:23.863Z,98850.81
2023-03-29T02:01:59.314Z,98840.84
2023-03-29T02:04:36.703Z,98835.41
2023-03-29T02:07:11.433Z,98834.31
2023-03-29T02:09:47.626Z,98826.75
2023-03-29T02:12:21.774Z,98824.56
2023-03-29T02:14:48.368Z,98822.94
2023-03-29T02:17:26.052Z,98826.69
2023-03-29T02:20:01.052Z,98826.97
2023-03-29T02:22:37.557Z,98825.88
2023-03-29T02:25:20.522Z,98827.22
2023-03-29T02:27:49.417Z,98828.84
2023-03-29T02:30:18.429Z,98819.69
2023-03-29T02:33:06.977Z,98826.19
2023-03-29T02:35:49.939Z,98821.09
2023-03-29T02:38:17.425Z,98820.28
2023-03-29T02:40:44.224Z,98828.34
2023-03-29T02:43:18.537Z,98812.75
2023-03-29T02:45:48.064Z,98817.31
2023-03-29T02:48:20.883Z,98799.78
2023-03-29T02:50:58.678Z,98794.41
2023-03-29T02:53:42.970Z,98782.00
2023-03-29T02:56:14.752Z,98772.03
2023-03-29T02:58:41.648Z,98765.84
2023-03-29T03:01:10.433Z,98766.13
2023-03-29T03:03:37.485Z,98760.75
2023-03-29T03:06:05.205Z,98763.69
2023-03-29T03:08:32.367Z,98760.19
2023-03-29T03:11:00.495Z,98754.53
2023-03-29T03:13:27.486Z,98747.53
2023-03-29T03:15:55.335Z,98753.47
2023-03-29T03:18:23.670Z,98755.63
2023-03-29T03:21:05.382Z,98752.94
2023-03-29T03:23:34.816Z,98756.75
2023-03-29T03:26:05.802Z,98759.44
2023-03-29T03:28:33.150Z,98751.38
2023-03-29T03:30:59.742Z,98758.66
2023-03-29T03:33:27.540Z,98762.16
2023-03-29T03:35:57.160Z,98762.22
2023-03-29T03:38:24.084Z,98760.59
2023-03-29T03:40:55.203Z,98749.31
2023-03-29T03:43:22.555Z,98744.75
2023-03-29T03:45:49.129Z,98738.06
2023-03-29T03:48:15.615Z,98746.13
2023-03-29T03:50:42.561Z,98753.69
2023-03-29T03:53:09.284Z,98750.47
2023-03-29T03:55:35.965Z,98750.22
2023-03-29T03:58:02.514Z,98752.63
2023-03-29T04:00:29.696Z,98746.16
2023-03-29T04:02:56.344Z,98742.97
2023-03-29T04:05:22.929Z,98742.69
2023-03-29T04:07:49.408Z,98755.91
2023-03-29T04:10:16.579Z,98757.00
2023-03-29T04:12:43.294Z,98762.13
2023-03-29T04:15:13.400Z,98751.09
2023-03-29T04:17:39.904Z,98762.97
2023-03-29T04:20:11.277Z,98756.22
2023-03-29T04:22:38.994Z,98760.31
2023-03-29T04:25:08.175Z,98766.22
2023-03-29T04:27:34.670Z,98758.16
2023-03-29T04:30:01.465Z,98763.00
2023-03-29T04:32:28.163Z,98763.00
2023-03-29T04:34:54.631Z,98761.13
2023-03-29T04:37:22.309Z,98763.81
2023-03-29T04:39:50.079Z,98768.38
2023-03-29T04:42:16.935Z,98764.63
2023-03-29T04:44:43.724Z,98764.63
2023-03-29T04:47:13.571Z,98758.41
2023-03-29T04:49:40.891Z,98766.25
2023-03-29T04:52:09.013Z,98768.97
2023-03-29T04:54:37.271Z,98760.34
2023-03-29T04:57:08.239Z,98766.53
2023-03-29T04:59:34.717Z,98768.72
2023-03-29T05:02:03.051Z,98766.03
2023-03-29T05:04:29.751Z,98766.81
2023-03-29T05:06:57.336Z,98763.06
2023-03-29T05:09:25.683Z,98768.44
2023-03-29T05:11:52.328Z,98764.66
2023-03-29T05:14:18.836Z,98764.66
2023-03-29T05:16:45.380Z,98762.25
2023-03-29T05:19:13.048Z,98765.75
2023-03-29T05:21:39.444Z,98759.28
2023-03-29T05:24:06.217Z,98763.06
2023-03-29T05:26:32.632Z,98766.56
2023-03-29T05:28:59.029Z,98764.66
2023-03-29T05:31:25.529Z,98763.31
2023-03-29T05:33:52.722Z,98755.81
2023-03-29T05:36:19.478Z,98754.19
2023-03-29T05:38:46.601Z,98760.94
2023-03-29T05:41:15.810Z,98760.41
2023-03-29T05:43:42.345Z,98758.00
2023-03-29T05:46:09.063Z,98760.16
2023-03-29T05:48:36.011Z,98751.78
2023-03-29T05:51:03.329Z,98756.91
2023-03-29T05:53:30.369Z,98762.31
2023-03-29T05:55:56.826Z,98758.81
2023-03-29T05:58:23.496Z,98761.53
2023-03-29T06:00:50.349Z,98763.44
2023-03-29T06:03:21.146Z,98766.38
2023-03-29T06:05:50.025Z,98762.09
2023-03-29T06:08:16.842Z,98766.69
2023-03-29T06:10:43.634Z,98765.59
2023-03-29T06:13:10.891Z,98767.50
2023-03-29T06:15:37.355Z,98765.34
2023-03-29T06:18:04.582Z,98767.78
2023-03-29T06:20:31.171Z,98767.53
2023-03-29T06:22:58.327Z,98773.19
2023-03-29T06:25:24.976Z,98773.75
2023-03-29T06:27:52.143Z,98772.38
2023-03-29T06:30:19.248Z,98768.59
2023-03-29T06:32:46.172Z,98775.63
2023-03-29T06:35:12.672Z,98778.88
2023-03-29T06:37:41.142Z,98783.19
2023-03-29T06:40:09.391Z,98785.34
2023-03-29T06:42:35.871Z,98777.81
2023-03-29T06:45:02.572Z,98785.34
2023-03-29T06:47:31.322Z,98787.78
2023-03-29T06:49:57.918Z,98778.88
2023-03-29T06:52:24.431Z,98783.19
2023-03-29T06:54:50.885Z,98782.66
2023-03-29T06:57:17.749Z,98786.72
2023-03-29T06:59:44.288Z,98793.44
2023-03-29T07:02:12.450Z,98785.88
2023-03-29T07:04:39.552Z,98779.44
2023-03-29T07:07:07.741Z,98788.59
2023-03-29T07:09:35.876Z,98797.25
2023-03-29T07:12:02.584Z,98815.06
2023-03-29T07:14:29.984Z,98813.19
2023-03-29T07:16:58.352Z,98804.78
2023-03-29T07:19:28.733Z,98814.50
2023-03-29T07:21:55.199Z,98814.00
2023-03-29T07:24:22.599Z,98814.22
2023-03-29T07:27:00.196Z,98813.44
2023-03-29T07:29:30.489Z,98818.28
2023-03-29T07:31:57.153Z,98816.66
2023-03-29T07:34:24.433Z,98823.94
2023-03-29T07:36:51.580Z,98825.56
2023-03-29T07:39:18.030Z,98824.72
2023-03-29T07:41:44.410Z,98820.41
2023-03-29T07:44:10.840Z,98817.13
2023-03-29T07:46:37.332Z,98816.31
2023-03-29T07:49:04.476Z,98822.53
2023-03-29T07:51:31.608Z,98826.59
2023-03-29T07:53:57.993Z,98834.97
2023-03-29T07:56:24.815Z,98826.28
2023-03-29T07:58:51.726Z,98831.41
2023-03-29T08:01:19.938Z,98830.28
2023-03-29T08:03:46.772Z,98829.47
2023-03-29T08:06:13.287Z,98838.09
2023-03-29T08:08:39.790Z,98838.63
2023-03-29T08:11:09.015Z,98832.91
2023-03-29T08:13:35.985Z,98827.72
2023-03-29T08:16:02.383Z,98829.06
2023-03-29T08:18:28.806Z,98826.00
2023-03-29T08:20:55.193Z,98827.56
2023-03-29T08:23:21.592Z,98819.38
2023-03-29T08:25:48.114Z,98824.22
2023-03-29T08:28:14.538Z,98813.88
2023-03-29T08:30:41.279Z,98813.28
2023-03-29T08:33:07.873Z,98821.09
2023-03-29T08:35:34.557Z,98817.28
2023-03-29T08:38:01.076Z,98811.59
2023-03-29T08:40:30.264Z,98815.66
2023-03-29T08:43:06.071Z,98818.06
2023-03-29T08:45:52.714Z,98825.66
2023-03-29T08:48:28.468Z,98824.59
2023-03-29T08:51:03.462Z,98819.78
2023-03-29T08:53:42.442Z,98814.34
2023-03-29T08:56:14.910Z,98816.47
2023-03-29T08:58:42.621Z,98814.03
2023-03-29T09:01:11.325Z,98814.25
2023-03-29T09:03:57.961Z,98810.75
2023-03-29T09:06:24.531Z,98805.00
2023-03-29T09:08:52.293Z,98809.50
2023-03-29T09:11:28.988Z,98801.56
2023-03-29T09:14:47.367Z,98808.78
2023-03-29T09:17:42.769Z,98807.56
2023-03-29T09:20:33.898Z,98799.66
2023-03-29T09:23:38.517Z,98805.25
2023-03-29T09:26:33.969Z,98806.16
2023-03-29T09:29:37.623Z,98804.72
2023-03-29T09:32:13.397Z,98794.78
2023-03-29T09:34:58.739Z,98800.53
2023-03-29T09:37:34.284Z,98802.28
2023-03-29T09:40:05.147Z,98797.53
2023-03-29T09:42:32.154Z,98789.84
2023-03-29T09:45:09.816Z,98785.84
2023-03-29T09:47:44.677Z,98785.13
2023-03-29T09:50:29.615Z,98775.13
2023-03-29T09:52:57.956Z,98772.91
2023-03-29T09:55:29.809Z,98763.94
2023-03-29T09:58:00.616Z,98764.72
2023-03-29T10:00:27.706Z,98769.44
2023-03-29T10:02:57.781Z,98770.38
2023-03-29T10:05:25.992Z,98769.22
2023-03-29T10:07:57.588Z,98767.63
2023-03-29T10:10:32.432Z,98780.69
2023-03-29T10:13:05.929Z,98778.38
2023-03-29T10:15:33.044Z,98770.19
2023-03-29T10:18:10.760Z,98767.00
2023-03-29T10:20:39.818Z,98760.38
2023-03-29T10:23:08.914Z,98764.69
2023-03-29T10:25:43.007Z,98761.38
2023-03-29T10:28:20.978Z,98760.56
2023-03-29T10:30:54.464Z,98761.47
2023-03-29T10:33:26.849Z,98749.88
2023-03-29T10:35:57.259Z,98751.50
2023-03-29T10:38:27.880Z,98746.84
2023-03-29T10:41:02.520Z,98749.38
2023-03-29T10:43:36.080Z,98744.94
2023-03-29T10:46:13.489Z,98751.91
2023-03-29T10:48:46.064Z,98742.53
2023-03-29T10:51:14.542Z,98734.84
2023-03-29T10:53:41.511Z,98729.63
2023-03-29T10:56:10.931Z,98725.06
2023-03-29T10:59:02.307Z,98725.47
2023-03-29T11:01:57.976Z,98732.06
2023-03-29T11:04:36.603Z,98734.75
2023-03-29T11:07:40.198Z,98734.41
2023-03-29T11:10:34.632Z,98722.56
2023-03-29T11:13:21.269Z,98716.22
2023-03-29T11:15:53.871Z,98708.25
2023-03-29T11:18:41.365Z,98705.41
2023-03-29T11:21:24.655Z,98700.13
2023-03-29T11:24:09.950Z,98692.00
2023-03-29T11:26:51.993Z,98687.69
2023-03-29T11:29:30.899Z,98689.78
2023-03-29T11:32:14.516Z,98690.78
2023-03-29T11:35:18.552Z,98690.84
2023-03-29T11:37:57.663Z,98691.88
2023-03-29T11:40:36.712Z,98690.13
2023-03-29T11:43:12.196Z,98685.22
2023-03-29T11:46:02.565Z,98680.78
2023-03-29T11:48:38.352Z,98679.06
2023-03-29T11:51:16.171Z,98671.53
2023-03-29T11:54:04.143Z,98677.31
2023-03-29T11:56:39.654Z,98670.25
2023-03-29T11:59:15.909Z,98662.88
2023-03-29T12:01:48.925Z,98659.03
2023-03-29T12:04:26.139Z,98665.03
2023-03-29T12:07:34.676Z,98656.63
2023-03-29T12:10:23.324Z,98645.09
2023-03-29T12:13:03.810Z,98649.94
2023-03-29T12:15:38.016Z,98639.66
2023-03-29T12:18:07.595Z,98645.00
2023-03-29T12:20:40.386Z,98653.25
2023-03-29T12:23:08.541Z,98645.81
2023-03-29T12:25:44.850Z,98651.41
2023-03-29T12:28:29.225Z,98642.53
2023-03-29T12:31:20.854Z,98640.97
2023-03-29T12:33:58.201Z,98638.88
2023-03-29T12:36:48.812Z,98634.66
2023-03-29T12:39:18.760Z,98628.44
2023-03-29T12:41:49.012Z,98628.25
2023-03-29T12:44:17.514Z,98624.53
2023-03-29T12:46:44.484Z,98629.59
2023-03-29T12:49:26.785Z,98631.75
2023-03-29T12:51:57.369Z,98632.94
2023-03-29T12:54:28.688Z,98639.59
2023-03-29T12:57:17.280Z,98648.81
2023-03-29T12:59:52.447Z,98640.63
2023-03-29T13:02:25.770Z,98646.59
2023-03-29T13:04:57.521Z,98629.47
2023-03-29T13:07:24.106Z,98626.03
2023-03-29T13:09:51.873Z,98644.91
2023-03-29T13:12:24.102Z,98642.84
2023-03-29T13:15:00.680Z,98647.81
2023-03-29T13:17:57.839Z,98663.69
2023-03-29T13:20:47.889Z,98660.88
2023-03-29T13:23:24.978Z,98660.75
2023-03-29T13:26:00.353Z,98663.13
2023-03-29T13:28:43.090Z,98663.94
2023-03-29T13:31:38.037Z,98671.31
2023-03-29T13:34:35.780Z,98672.28
2023-03-29T13:37:32.459Z,98677.75
2023-03-29T13:39:59.160Z,98661.69
2023-03-29T13:42:35.330Z,98664.56
2023-03-29T13:45:38.963Z,98666.66
2023-03-29T13:48:30.945Z,98656.72
2023-03-29T13:51:20.372Z,98662.50
2023-03-29T13:53:50.719Z,98660.88
2023-03-29T13:56:26.292Z,98661.84
2023-03-29T13:58:58.102Z,98666.03
2023-03-29T14:01:43.636Z,98661.66
2023-03-29T14:04:16.362Z,98666.97
2023-03-29T14:06:49.322Z,98666.16
2023-03-29T14:09:18.441Z,98666.63
2023-03-29T14:11:47.073Z,98673.81
2023-03-29T14:14:13.656Z,98680.66
2023-03-29T14:16:41.651Z,98689.16
2023-03-29T14:19:17.408Z,98690.94
2023-03-29T14:21:44.795Z,98687.00
2023-03-29T14:24:38.389Z,98684.22
2023-03-29T14:27:07.929Z,98686.28
2023-03-29T14:29:35.778Z,98687.88
2023-03-29T14:32:13.523Z,98667.31
2023-03-29T14:34:40.516Z,98658.16
2023-03-29T14:37:09.848Z,98654.13
2023-03-29T14:39:36.976Z,98652.84
2023-03-29T14:42:03.686Z,98650.13
2023-03-29T14:44:33.036Z,98642.94
2023-03-29T14:47:01.562Z,98639.59
2023-03-29T14:49:28.865Z,98638.16
2023-03-29T14:51:55.767Z,98637.53
2023-03-29T14:54:26.859Z,98640.44
2023-03-29T14:56:54.214Z,98631.00
2023-03-29T14:59:32.221Z,98621.28
2023-03-29T15:01:58.716Z,98622.44
2023-03-29T15:04:32.473Z,98617.97
2023-03-29T15:06:59.054Z,98616.25
2023-03-29T15:09:32.548Z,98606.44
2023-03-29T15:12:00.684Z,98600.84
2023-03-29T15:14:33.584Z,98596.88
2023-03-29T15:17:07.103Z,98589.16
2023-03-29T15:19:34.238Z,98593.00
2023-03-29T15:22:10.210Z,98592.84
2023-03-29T15:24:43.401Z,98584.34
2023-03-29T15:27:19.623Z,98575.56
2023-03-29T15:29:47.329Z,98578.13
2023-03-29T15:32:24.893Z,98566.75
2023-03-29T15:34:59.352Z,98564.22
2023-03-29T15:37:26.529Z,98559.72
2023-03-29T15:39:53.108Z,98562.28
2023-03-29T15:42:20.138Z,98565.88
2023-03-29T15:44:46.829Z,98553.22
2023-03-29T15:47:13.856Z,98560.13
2023-03-29T15:49:40.408Z,98554.81
2023-03-29T15:52:06.766Z,98546.47
2023-03-29T15:54:33.775Z,98549.88
2023-03-29T15:57:09.123Z,98548.06
2023-03-29T15:59:36.513Z,98539.88
2023-03-29T16:02:04.280Z,98537.34
2023-03-29T16:04:30.850Z,98540.22
2023-03-29T16:06:57.780Z,98546.00
2023-03-29T16:09:25.737Z,98543.09
2023-03-29T16:11:52.175Z,98547.06
2023-03-29T16:14:27.246Z,98541.75
2023-03-29T16:16:55.760Z,98547.66
2023-03-29T16:19:23.040Z,98549.56
2023-03-29T16:21:50.174Z,98546.19
2023-03-29T16:24:22.236Z,98545.84
2023-03-29T16:26:52.792Z,98544.25
2023-03-29T16:29:21.231Z,98542.00
2023-03-29T16:31:51.306Z,98537.53
2023-03-29T16:34:24.724Z,98539.94
2023-03-29T16:36:56.469Z,98531.75
2023-03-29T16:39:27.355Z,98538.66
2023-03-29T16:41:54.497Z,98532.03
2023-03-29T16:44:27.534Z,98531.69
2023-03-29T16:46:54.473Z,98533.25
2023-03-29T16:49:21.521Z,98525.53
2023-03-29T16:51:50.000Z,98524.06
2023-03-29T16:54:21.061Z,98526.94
2023-03-29T16:56:49.376Z,98522.44
2023-03-29T16:59:16.597Z,98520.34
2023-03-29T17:01:45.162Z,98524.47
2023-03-29T17:04:13.166Z,98520.47
2023-03-29T17:06:39.749Z,98511.31
2023-03-29T17:09:07.242Z,98510.81
2023-03-29T17:11:35.967Z,98511.16
2023-03-29T17:14:02.911Z,98519.59
2023-03-29T17:16:29.483Z,98518.63
2023-03-29T17:19:00.634Z,98523.09
2023-03-29T17:21:28.900Z,98532.69
2023-03-29T17:23:55.495Z,98536.88
2023-03-29T17:26:22.177Z,98522.72
2023-03-29T17:28:49.988Z,98531.22
2023-03-29T17:31:20.336Z,98529.94
2023-03-29T17:33:47.651Z,98527.34
2023-03-29T17:36:14.484Z,98529.56
2023-03-29T17:38:42.910Z,98513.53
2023-03-29T17:41:09.970Z,98512.72
2023-03-29T17:43:36.691Z,98505.66
2023-03-29T17:46:03.591Z,98504.69
2023-03-29T17:48:32.807Z,98504.31
2023-03-29T17:50:59.711Z,98509.88
2023-03-29T17:53:26.357Z,98499.91
2023-03-29T17:55:52.929Z,98500.34
2023-03-29T17:58:19.488Z,98499.97
2023-03-29T18:00:45.985Z,98494.34
2023-03-29T18:03:12.504Z,98494.78
2023-03-29T18:05:39.020Z,98491.53
2023-03-29T18:08:05.886Z,98491.06
2023-03-29T18:10:33.400Z,98490.56
2023-03-29T18:13:00.922Z,98489.75
2023-03-29T18:15:28.629Z,98488.34
2023-03-29T18:17:55.471Z,98489.94
2023-03-29T18:20:21.970Z,98483.53
2023-03-29T18:22:50.227Z,98490.56
2023-03-29T18:25:18.291Z,98478.88
2023-03-29T18:27:44.920Z,98483.53
2023-03-29T18:30:13.686Z,98490.38
2023-03-29T18:32:42.219Z,98497.72
2023-03-29T18:35:09.244Z,98488.59
2023-03-29T18:37:36.315Z,98486.47
2023-03-29T18:40:06.492Z,98480.53
2023-03-29T18:42:32.884Z,98489.19
2023-03-29T18:44:59.415Z,98482.47
2023-03-29T18:47:27.111Z,98489.28
2023-03-29T18:49:53.760Z,98488.81
2023-03-29T18:52:20.248Z,98478.56
2023-03-29T18:54:46.661Z,98473.13
2023-03-29T18:57:13.131Z,98476.13
2023-03-29T18:59:39.638Z,98479.94
2023-03-29T19:02:06.968Z,98473.72
2023-03-29T19:04:33.401Z,98472.09
2023-03-29T19:07:01.393Z,98472.09
2023-03-29T19:09:27.896Z,98474.50
2023-03-29T19:11:54.338Z,98482.97
2023-03-29T19:14:24.116Z,98485.22
2023-03-29T19:16:52.040Z,98478.78
2023-03-29T19:19:19.392Z,98473.16
2023-03-29T19:21:49.573Z,98483.81
2023-03-29T19:24:16.646Z,98483.81
2023-03-29T19:26:44.454Z,98467.50
2023-03-29T19:29:11.702Z,98469.75
2023-03-29T19:31:38.401Z,98474.38
2023-03-29T19:34:06.993Z,98478.69
2023-03-29T19:36:33.806Z,98480.94
2023-03-29T19:39:00.880Z,98475.28
2023-03-29T19:41:27.701Z,98474.47
2023-03-29T19:43:55.172Z,98475.09
2023-03-29T19:46:21.792Z,98469.66
2023-03-29T19:48:48.319Z,98464.41
2023-03-29T19:51:14.761Z,98453.84
2023-03-29T19:53:41.880Z,98453.03
2023-03-29T19:56:10.780Z,98448.53
2023-03-29T19:58:37.838Z,98442.38
2023-03-29T20:01:04.602Z,98443.59
2023-03-29T20:03:33.986Z,98441.00
2023-03-29T20:06:00.795Z,98440.81
2023-03-29T20:08:27.359Z,98429.13
2023-03-29T20:11:02.352Z,98423.81
2023-03-29T20:13:38.344Z,98426.84
2023-03-29T20:16:06.928Z,98426.03
2023-03-29T20:18:33.355Z,98410.84
2023-03-29T20:21:01.680Z,98409.25
2023-03-29T20:23:28.490Z,98413.56
2023-03-29T20:25:54.879Z,98403.97
2023-03-29T20:28:21.299Z,98402.59
2023-03-29T20:30:51.048Z,98399.25
2023-03-29T20:33:18.813Z,98398.13
2023-03-29T20:35:46.537Z,98394.94
2023-03-29T20:38:14.052Z,98393.91
2023-03-29T20:40:43.332Z,98389.59
2023-03-29T20:43:13.223Z,98390.72
2023-03-29T20:45:52.003Z,98389.13
2023-03-29T20:48:21.682Z,98389.91
2023-03-29T20:50:49.257Z,98389.13
2023-03-29T20:53:16.288Z,98382.25
2023-03-29T20:55:42.789Z,98372.88
2023-03-29T20:58:09.922Z,98368.94
2023-03-29T21:00:38.279Z,98372.47
2023-03-29T21:03:05.070Z,98367.03
2023-03-29T21:05:33.784Z,98360.38
2023-03-29T21:08:00.811Z,98354.81
2023-03-29T21:10:28.096Z,98353.16
2023-03-29T21:12:55.026Z,98355.50
2023-03-29T21:15:21.749Z,98350.44
2023-03-29T21:17:48.199Z,98350.59
2023-03-29T21:20:15.769Z,98355.06
2023-03-29T21:22:45.773Z,98349.13
2023-03-29T21:25:15.609Z,98341.38
2023-03-29T21:27:42.555Z,98342.97
2023-03-29T21:30:10.445Z,98340.09
2023-03-29T21:32:37.092Z,98334.41
2023-03-29T21:35:04.060Z,98331.56
2023-03-29T21:37:31.470Z,98328.84
2023-03-29T21:39:58.036Z,98323.41
2023-03-29T21:42:24.724Z,98321.03
2023-03-29T21:44:51.324Z,98310.31
2023-03-29T21:47:17.781Z,98316.56
2023-03-29T21:49:44.310Z,98314.94
2023-03-29T21:52:10.740Z,98311.31
2023-03-29T21:54:37.230Z,98302.38
2023-03-29T21:57:04.506Z,98294.53
2023-03-29T21:59:31.037Z,98299.44
2023-03-29T22:01:57.475Z,98290.69
2023-03-29T22:04:36.078Z,98298.06
2023-03-29T22:07:04.166Z,98299.66
2023-03-29T22:09:32.969Z,98298.06
2023-03-29T22:12:01.551Z,98302.25
2023-03-29T22:14:30.962Z,98299.41
2023-03-29T22:16:57.470Z,98295.72
2023-03-29T22:19:24.050Z,98290.28
2023-03-29T22:21:51.407Z,98295.25
2023-03-29T22:24:18.094Z,98295.25
2023-03-29T22:26:44.923Z,98293.94
2023-03-29T22:29:11.951Z,98284.47
2023-03-29T22:31:39.425Z,98289.91
2023-03-29T22:34:06.642Z,98291.72
2023-03-29T22:36:33.825Z,98289.81
2023-03-29T22:39:00.413Z,98286.97
2023-03-29T22:41:28.074Z,98286.16
2023-03-29T22:43:56.743Z,98289.22
2023-03-29T22:46:23.961Z,98286.00
2023-03-29T22:48:50.988Z,98287.91
2023-03-29T22:51:17.419Z,98285.69
2023-03-29T22:53:44.569Z,98287.59
2023-03-29T22:56:11.194Z,98288.56
2023-03-29T22:58:37.796Z,98287.94
2023-03-29T23:01:05.889Z,98290.03
2023-03-29T23:03:32.971Z,98285.69
2023-03-29T23:06:04.493Z,98277.38
2023-03-29T23:08:32.455Z,98282.50
2023-03-29T23:10:59.431Z,98280.75
2023-03-29T23:13:26.332Z,98277.88
2023-03-29T23:15:54.756Z,98273.53
2023-03-29T23:18:22.109Z,98263.78
2023-03-29T23:20:49.914Z,98265.81
2023-03-29T23:23:18.283Z,98269.38
2023-03-29T23:25:46.479Z,98262.28
2023-03-29T23:28:14.156Z,98266.78
2023-03-29T23:30:40.866Z,98268.06
2023-03-29T23:33:07.408Z,98269.66
2023-03-29T23:35:33.879Z,98258.09
2023-03-29T23:38:00.713Z,98259.69
2023-03-29T23:40:27.763Z,98266.13
2023-03-29T23:42:59.238Z,98270.94
2023-03-29T23:45:29.239Z,98271.91
2023-03-29T23:47:57.119Z,98275.75
2023-03-29T23:50:24.328Z,98285.38
2023-03-29T23:52:51.594Z,98296.88
2023-03-29T23:55:18.897Z,98295.47
2023-03-29T23:57:45.418Z,98288.88
